Time;durP1;ratioP1;P1;durP2;ratioP2;P2;SDS_P1;SDS_P2;PMS_P1;PMS_P2;Temp;Humidity;BMP_temperature;BMP_pressure;BME280_temperature;BME280_humidity;BME280_pressure;Samples;Min_cycle;Max_cycle;Signal;HPM_P1;HPM_P2
2022/08/17 00:00:31;;;;;;;8.90;4.35;;;26.20;65.70;;;;;;4997334;28;20037;-60
2022/08/17 00:03:07;;;;;;;6.88;4.70;;;26.20;65.70;;;;;;4998433;28;20022;-61
2022/08/17 00:05:54;;;;;;;8.95;4.45;;;26.20;65.90;;;;;;4995658;28;20038;-60
2022/08/17 00:08:22;;;;;;;6.57;4.57;;;26.10;65.90;;;;;;4997638;28;20049;-61
2022/08/17 00:10:48;;;;;;;6.45;4.13;;;26.00;66.00;;;;;;5000295;28;20042;-60
2022/08/17 00:13:45;;;;;;;7.45;5.20;;;26.00;66.20;;;;;;4997053;28;20072;-60
2022/08/17 00:16:25;;;;;;;8.95;4.82;;;26.00;66.20;;;;;;4991057;28;20038;-60
2022/08/17 00:18:50;;;;;;;5.10;4.55;;;26.00;66.40;;;;;;4997644;28;20022;-61
2022/08/17 00:21:17;;;;;;;6.97;4.70;;;26.00;66.30;;;;;;5000384;28;20049;-61
2022/08/17 00:23:43;;;;;;;9.70;4.32;;;26.00;66.40;;;;;;4983256;28;20026;-61
2022/08/17 00:26:09;;;;;;;5.82;4.55;;;26.00;66.40;;;;;;4998411;28;20073;-61
2022/08/17 00:28:35;;;;;;;7.32;4.90;;;25.90;66.50;;;;;;4979810;28;20462;-61
2022/08/17 00:31:01;;;;;;;7.78;4.70;;;25.90;66.50;;;;;;4997343;28;20026;-61
2022/08/17 00:33:28;;;;;;;7.70;4.32;;;25.90;66.50;;;;;;4978816;28;20566;-61
2022/08/17 00:35:54;;;;;;;4.95;4.25;;;25.90;66.70;;;;;;4980064;28;20080;-61
2022/08/17 00:38:19;;;;;;;6.40;4.43;;;25.80;66.70;;;;;;4982136;28;20067;-61
2022/08/17 00:40:50;;;;;;;7.05;3.92;;;25.80;66.80;;;;;;4998279;28;20026;-61
2022/08/17 00:43:33;;;;;;;6.47;4.38;;;25.80;66.80;;;;;;4982720;28;20048;-61
2022/08/17 00:46:00;;;;;;;9.35;3.75;;;25.70;66.90;;;;;;4998424;28;20532;-62
2022/08/17 00:48:26;;;;;;;5.05;3.90;;;25.70;67.10;;;;;;5015545;28;20030;-61
2022/08/17 00:51:13;;;;;;;5.97;4.00;;;25.70;67.30;;;;;;4993669;28;20037;-61
2022/08/17 00:53:41;;;;;;;4.20;3.65;;;25.60;67.30;;;;;;4981969;28;20541;-61
2022/08/17 00:56:10;;;;;;;5.97;3.85;;;25.60;67.60;;;;;;4996345;28;20030;-61
2022/08/17 00:58:36;;;;;;;4.45;3.55;;;25.60;67.70;;;;;;5010337;28;20022;-61
2022/08/17 01:01:01;;;;;;;4.28;3.80;;;25.60;67.70;;;;;;4999592;28;20034;-60
2022/08/17 01:03:27;;;;;;;5.65;3.92;;;25.60;67.70;;;;;;4980728;28;20041;-61
2022/08/17 01:05:55;;;;;;;5.70;4.68;;;25.50;67.70;;;;;;5012437;28;20068;-61
2022/08/17 01:08:23;;;;;;;8.90;4.57;;;25.60;67.80;;;;;;5012836;28;20050;-61
2022/08/17 01:10:53;;;;;;;9.98;4.07;;;25.50;67.90;;;;;;4998751;28;20072;-61
2022/08/17 01:13:19;;;;;;;6.18;4.78;;;25.60;68.00;;;;;;4999987;28;20021;-61
2022/08/17 01:15:51;;;;;;;6.40;4.13;;;25.50;68.10;;;;;;4979994;28;20397;-61
2022/08/17 01:18:17;;;;;;;4.13;3.78;;;25.50;68.10;;;;;;4996760;28;20118;-61
2022/08/17 01:20:50;;;;;;;4.47;3.90;;;25.50;68.20;;;;;;4980797;28;20594;-61
2022/08/17 01:23:16;;;;;;;8.00;3.88;;;25.40;68.20;;;;;;4995813;28;20121;-61
2022/08/17 01:25:42;;;;;;;8.82;3.90;;;25.40;68.20;;;;;;4994759;28;20127;-60
2022/08/17 01:28:07;;;;;;;7.32;4.43;;;25.40;68.30;;;;;;4977317;28;20584;-61
2022/08/17 01:30:33;;;;;;;6.65;4.00;;;25.40;68.30;;;;;;4997801;28;20437;-60
2022/08/17 01:32:59;;;;;;;5.60;4.18;;;25.40;68.50;;;;;;4977559;28;21328;-60
2022/08/17 01:35:24;;;;;;;3.65;3.35;;;25.30;68.40;;;;;;4994679;28;20073;-60
2022/08/17 01:37:50;;;;;;;5.25;4.03;;;25.30;68.50;;;;;;4995571;28;20453;-60
2022/08/17 01:40:24;;;;;;;4.70;3.88;;;25.30;68.50;;;;;;4996149;28;20568;-60
2022/08/17 01:43:23;;;;;;;4.18;3.75;;;25.20;68.50;;;;;;4996650;28;20046;-60
2022/08/17 01:45:50;;;;;;;6.18;3.80;;;25.20;68.50;;;;;;4987513;28;20481;-61
2022/08/17 01:48:18;;;;;;;8.82;3.75;;;25.20;68.50;;;;;;4995614;28;20026;-61
2022/08/17 01:50:44;;;;;;;5.75;3.35;;;25.20;68.50;;;;;;4995511;28;20030;-62
2022/08/17 01:53:21;;;;;;;4.22;3.60;;;25.20;68.40;;;;;;4996905;28;20752;-60
2022/08/17 01:55:53;;;;;;;8.20;3.92;;;25.20;68.40;;;;;;5012404;28;20057;-60
2022/08/17 01:58:18;;;;;;;4.60;3.60;;;25.20;68.40;;;;;;4993844;28;20033;-60
2022/08/17 02:00:45;;;;;;;4.25;3.60;;;25.20;68.40;;;;;;4997374;28;20501;-60
2022/08/17 02:03:11;;;;;;;4.13;3.72;;;25.10;68.40;;;;;;4996862;28;20198;-60
2022/08/17 02:05:37;;;;;;;5.50;3.80;;;25.10;68.50;;;;;;4999089;28;20018;-61
2022/08/17 02:08:03;;;;;;;6.10;3.97;;;25.10;68.50;;;;;;4996155;28;20038;-60
2022/08/17 02:10:29;;;;;;;4.63;3.88;;;25.10;68.60;;;;;;5002504;28;20034;-61
2022/08/17 02:12:54;;;;;;;7.38;4.18;;;25.10;68.60;;;;;;4999747;28;20022;-61
2022/08/17 02:15:20;;;;;;;4.35;3.95;;;25.10;68.60;;;;;;4999895;28;20037;-60
2022/08/17 02:17:46;;;;;;;5.85;3.65;;;25.10;68.70;;;;;;4984260;28;20037;-60
2022/08/17 02:20:12;;;;;;;5.78;3.63;;;25.10;68.70;;;;;;4998256;28;20656;-60
2022/08/17 02:22:38;;;;;;;7.13;4.15;;;25.10;68.60;;;;;;5000097;28;20092;-60
2022/08/17 02:25:04;;;;;;;5.75;4.07;;;25.10;68.40;;;;;;4999078;28;20038;-61
2022/08/17 02:27:29;;;;;;;4.55;3.70;;;25.00;69.00;;;;;;5001769;28;20747;-60
2022/08/17 02:29:55;;;;;;;7.20;3.60;;;25.00;68.30;;;;;;5001534;28;20046;-63
2022/08/17 02:32:24;;;;;;;4.43;3.50;;;25.00;68.20;;;;;;5002994;28;20657;-61
2022/08/17 02:34:50;;;;;;;5.18;4.15;;;25.00;68.20;;;;;;4998302;28;20720;-63
2022/08/17 02:37:16;;;;;;;5.50;4.25;;;25.00;68.10;;;;;;4996915;28;20109;-65
2022/08/17 02:39:45;;;;;;;8.45;4.22;;;24.90;68.00;;;;;;5000360;28;20056;-60
2022/08/17 02:42:12;;;;;;;9.65;4.90;;;24.90;68.00;;;;;;4998364;28;20566;-61
2022/08/17 02:44:38;;;;;;;6.05;4.15;;;25.10;68.10;;;;;;4999744;28;20026;-61
2022/08/17 02:47:04;;;;;;;5.60;4.55;;;24.90;68.00;;;;;;4999560;28;20030;-62
2022/08/17 02:49:29;;;;;;;6.00;4.05;;;24.90;68.00;;;;;;4999747;28;20041;-63
2022/08/17 02:51:56;;;;;;;6.50;4.18;;;24.90;68.00;;;;;;4995545;28;20135;-62
2022/08/17 02:54:21;;;;;;;7.50;3.80;;;24.90;68.00;;;;;;4994907;28;20122;-62
2022/08/17 02:56:47;;;;;;;13.30;4.25;;;24.90;68.00;;;;;;4997601;28;20025;-62
2022/08/17 02:59:12;;;;;;;7.68;4.10;;;24.80;68.00;;;;;;4999721;28;20033;-62
2022/08/17 03:01:38;;;;;;;4.55;3.88;;;24.90;68.00;;;;;;5002135;28;20094;-62
2022/08/17 03:04:03;;;;;;;8.68;3.70;;;24.90;68.00;;;;;;4999242;28;20112;-62
2022/08/17 03:06:30;;;;;;;9.80;4.20;;;24.80;68.00;;;;;;5002495;28;20041;-64
2022/08/17 03:08:56;;;;;;;4.20;3.80;;;24.80;68.00;;;;;;5014312;28;20021;-62
2022/08/17 03:11:22;;;;;;;11.65;4.18;;;24.80;68.00;;;;;;4999030;28;20123;-62
2022/08/17 03:13:48;;;;;;;7.03;4.07;;;24.80;68.00;;;;;;4964418;28;20041;-62
2022/08/17 03:16:13;;;;;;;4.85;4.32;;;24.80;68.00;;;;;;5000177;28;20029;-61
2022/08/17 03:18:39;;;;;;;6.20;3.95;;;24.80;68.00;;;;;;4996551;28;20046;-61
2022/08/17 03:21:05;;;;;;;9.85;4.47;;;24.80;68.00;;;;;;4998807;28;20030;-61
2022/08/17 03:23:31;;;;;;;6.20;4.22;;;24.80;68.00;;;;;;4999517;28;20034;-61
2022/08/17 03:25:57;;;;;;;6.70;3.97;;;24.90;68.10;;;;;;4999470;28;20474;-62
2022/08/17 03:28:22;;;;;;;7.35;3.97;;;24.70;68.00;;;;;;4998557;28;20041;-62
2022/08/17 03:30:49;;;;;;;5.30;3.97;;;24.70;68.00;;;;;;5001542;28;20045;-62
2022/08/17 03:33:15;;;;;;;6.85;4.15;;;24.80;68.00;;;;;;4999252;28;20034;-61
2022/08/17 03:35:41;;;;;;;7.93;4.07;;;24.70;68.00;;;;;;4980422;28;20208;-62
2022/08/17 03:38:08;;;;;;;5.60;3.72;;;24.70;67.90;;;;;;4999153;28;20034;-62
2022/08/17 03:40:33;;;;;;;12.60;4.03;;;24.80;68.00;;;;;;4999142;28;20057;-62
2022/08/17 03:43:06;;;;;;;4.38;3.45;;;24.70;68.00;;;;;;4998047;28;20122;-62
2022/08/17 03:56:42;;;;;;;6.30;3.70;;;24.60;68.00;;;;;;4999249;28;20119;-62
2022/08/17 03:59:18;;;;;;;7.20;3.65;;;24.60;68.00;;;;;;4996580;28;20489;-62
2022/08/17 04:01:45;;;;;;;4.90;3.80;;;24.60;68.00;;;;;;5013573;28;20084;-62
2022/08/17 04:04:11;;;;;;;6.90;3.83;;;24.60;68.10;;;;;;4997836;28;20592;-61
2022/08/17 04:06:37;;;;;;;4.53;3.45;;;24.60;68.10;;;;;;4981164;28;20041;-62
2022/08/17 04:09:03;;;;;;;7.30;3.78;;;24.60;68.10;;;;;;5012764;28;20394;-62
2022/08/17 04:11:28;;;;;;;5.07;3.42;;;24.60;68.10;;;;;;5000469;28;20033;-61
2022/08/17 04:13:55;;;;;;;4.68;3.90;;;24.60;68.20;;;;;;4998619;28;20030;-62
2022/08/17 04:16:21;;;;;;;4.13;3.42;;;24.50;68.10;;;;;;4999192;28;20028;-62
2022/08/17 04:18:47;;;;;;;3.83;3.28;;;24.50;68.10;;;;;;4998553;28;20760;-62
2022/08/17 04:21:12;;;;;;;8.55;3.75;;;24.50;68.20;;;;;;4996873;28;20042;-62
2022/08/17 04:23:38;;;;;;;5.50;3.53;;;24.50;68.30;;;;;;4998811;28;20083;-61
2022/08/17 04:26:03;;;;;;;10.65;3.70;;;24.50;68.30;;;;;;4993571;28;20076;-62
2022/08/17 04:28:29;;;;;;;6.35;3.50;;;24.40;68.30;;;;;;4999039;28;20029;-61
2022/08/17 04:30:55;;;;;;;6.07;3.35;;;24.50;68.30;;;;;;4997164;28;20903;-62
2022/08/17 04:33:23;;;;;;;8.10;3.80;;;24.40;68.20;;;;;;4994218;28;20034;-61
2022/08/17 04:35:57;;;;;;;5.28;4.00;;;24.50;68.30;;;;;;4998437;28;20058;-62
2022/08/17 04:38:25;;;;;;;6.88;3.38;;;24.40;68.20;;;;;;4982349;28;20964;-61
2022/08/17 04:43:35;;;;;;;5.85;3.28;;;24.40;68.30;;;;;;4996047;28;20041;-61
2022/08/17 04:46:03;;;;;;;5.68;3.80;;;24.40;68.30;;;;;;4996600;28;20038;-61
2022/08/17 04:48:34;;;;;;;4.18;3.65;;;24.40;69.00;;;;;;5026287;28;20062;-61
2022/08/17 04:50:59;;;;;;;9.85;3.78;;;24.40;68.30;;;;;;4964592;28;20042;-61
2022/08/17 04:53:25;;;;;;;9.80;4.00;;;24.40;68.30;;;;;;4996720;28;20038;-61
2022/08/17 04:55:51;;;;;;;5.18;3.38;;;24.40;68.30;;;;;;4997229;28;20045;-61
2022/08/17 04:58:16;;;;;;;4.68;3.40;;;24.30;68.30;;;;;;4993358;28;20389;-61
2022/08/17 05:00:42;;;;;;;7.57;3.60;;;24.30;68.30;;;;;;4994858;28;20053;-61
2022/08/17 05:03:08;;;;;;;4.85;3.50;;;24.30;68.40;;;;;;4979709;28;20054;-61
2022/08/17 05:05:37;;;;;;;5.53;3.88;;;24.30;68.40;;;;;;5000313;28;20026;-61
2022/08/17 05:08:04;;;;;;;5.13;3.95;;;24.30;68.40;;;;;;4995570;28;20037;-61
2022/08/17 05:10:31;;;;;;;7.78;3.95;;;24.40;68.50;;;;;;4978296;28;20074;-61
2022/08/17 05:13:04;;;;;;;5.53;3.50;;;24.30;68.50;;;;;;4995389;28;20072;-61
2022/08/17 05:15:30;;;;;;;8.45;3.88;;;24.30;68.60;;;;;;4998883;28;20450;-61
2022/08/17 05:17:56;;;;;;;6.32;4.10;;;24.30;68.60;;;;;;4995968;28;20429;-61
2022/08/17 05:20:21;;;;;;;4.80;3.75;;;24.30;68.70;;;;;;4975328;28;20049;-61
2022/08/17 05:22:52;;;;;;;5.55;3.70;;;24.30;68.60;;;;;;5012949;28;20026;-61
2022/08/17 05:25:22;;;;;;;8.50;4.13;;;24.30;68.70;;;;;;4994611;28;20020;-61
2022/08/17 05:27:47;;;;;;;5.75;3.80;;;24.20;68.70;;;;;;4995808;28;20050;-61
2022/08/17 05:30:13;;;;;;;6.22;3.72;;;24.30;69.00;;;;;;4996152;28;20173;-61
2022/08/17 05:32:39;;;;;;;11.93;3.80;;;24.20;69.10;;;;;;4980266;28;20212;-61
2022/08/17 05:35:05;;;;;;;9.00;3.72;;;24.20;69.30;;;;;;5000554;28;20026;-61
2022/08/17 05:37:30;;;;;;;14.73;3.92;;;24.10;69.40;;;;;;4996887;28;20042;-61
2022/08/17 05:39:56;;;;;;;13.57;3.85;;;24.20;69.40;;;;;;4997518;28;20034;-61
2022/08/17 05:42:22;;;;;;;8.95;4.00;;;24.20;69.30;;;;;;4993496;28;20752;-61
2022/08/17 05:44:48;;;;;;;10.30;4.18;;;24.20;69.40;;;;;;4995065;28;20032;-61
2022/08/17 05:47:13;;;;;;;6.88;3.80;;;24.20;69.50;;;;;;4973698;28;20038;-61
2022/08/17 05:49:39;;;;;;;10.05;4.50;;;24.20;69.50;;;;;;4991974;28;20217;-61
2022/08/17 05:52:40;;;;;;;6.95;3.65;;;24.20;70.00;;;;;;4993637;28;21163;-61
2022/08/17 05:55:29;;;;;;;8.63;4.25;;;24.20;69.70;;;;;;4996632;28;20038;-61
2022/08/17 05:58:21;;;;;;;8.85;3.97;;;24.20;69.70;;;;;;4998239;28;20041;-61
2022/08/17 06:00:49;;;;;;;11.82;4.10;;;24.20;69.70;;;;;;5022741;28;20538;-61
2022/08/17 06:03:24;;;;;;;8.25;3.70;;;24.20;69.80;;;;;;4991210;28;20180;-62
2022/08/17 06:05:56;;;;;;;12.07;4.40;;;24.20;70.40;;;;;;4970959;28;20072;-61
2022/08/17 06:08:47;;;;;;;10.25;3.95;;;24.20;70.70;;;;;;4995693;28;20034;-60
2022/08/17 06:11:15;;;;;;;9.63;3.70;;;24.20;70.90;;;;;;4996238;28;21368;-62
2022/08/17 06:14:12;;;;;;;8.35;3.25;;;24.10;71.20;;;;;;4996420;28;20075;-62
2022/08/17 06:16:40;;;;;;;8.85;3.83;;;24.10;71.20;;;;;;4994212;28;20093;-61
2022/08/17 06:19:15;;;;;;;9.13;3.78;;;24.10;71.40;;;;;;4992878;28;20452;-61
2022/08/17 06:21:43;;;;;;;8.70;4.00;;;24.10;71.80;;;;;;4996582;28;20064;-62
2022/08/17 06:24:33;;;;;;;8.52;3.65;;;24.00;71.50;;;;;;4997645;28;20376;-62
2022/08/17 06:27:05;;;;;;;8.40;4.00;;;24.10;72.00;;;;;;4992969;28;20996;-62
2022/08/17 06:29:44;;;;;;;10.88;4.03;;;24.10;71.70;;;;;;4993248;28;20124;-61
2022/08/17 06:32:10;;;;;;;7.88;3.50;;;24.10;71.80;;;;;;5008030;28;20025;-62
2022/08/17 06:34:36;;;;;;;10.75;4.07;;;24.10;71.80;;;;;;4979709;28;20465;-61
2022/08/17 06:37:19;;;;;;;21.70;4.57;;;24.20;72.00;;;;;;4984047;28;20029;-61
2022/08/17 06:40:19;;;;;;;16.13;5.18;;;24.10;72.00;;;;;;4984383;28;20022;-62
2022/08/17 06:42:52;;;;;;;18.90;5.47;;;24.20;72.80;;;;;;4973068;28;20041;-62
2022/08/17 06:45:30;;;;;;;15.85;5.18;;;24.20;72.70;;;;;;4984444;28;20026;-62
2022/08/17 06:48:00;;;;;;;39.00;6.72;;;24.20;73.00;;;;;;4984119;28;20041;-62
2022/08/17 06:50:39;;;;;;;18.20;5.25;;;24.20;73.10;;;;;;4995722;28;20068;-61
2022/08/17 06:53:22;;;;;;;17.30;5.07;;;24.20;73.30;;;;;;4990053;28;20026;-62
2022/08/17 06:56:07;;;;;;;12.30;4.50;;;24.20;73.70;;;;;;5019580;28;20883;-62
2022/08/17 06:58:34;;;;;;;26.45;5.28;;;24.20;74.10;;;;;;4986333;28;20046;-61
2022/08/17 07:01:04;;;;;;;42.53;7.78;;;24.20;73.80;;;;;;4988856;28;20244;-62
2022/08/17 07:03:36;;;;;;;32.28;6.82;;;24.20;73.80;;;;;;4989401;28;20026;-62
2022/08/17 07:06:14;;;;;;;97.38;11.88;;;24.20;74.00;;;;;;4974332;28;20022;-62
2022/08/17 07:08:48;;;;;;;39.35;6.70;;;24.30;74.00;;;;;;4985291;28;20052;-61
2022/08/17 07:11:16;;;;;;;68.57;11.32;;;24.30;74.10;;;;;;5017022;28;20045;-61
2022/08/17 07:13:47;;;;;;;29.38;6.90;;;24.30;74.10;;;;;;4968391;28;20153;-61
2022/08/17 07:16:14;;;;;;;27.67;6.10;;;24.40;74.60;;;;;;4988166;28;20102;-60
2022/08/17 07:18:39;;;;;;;42.17;6.82;;;24.40;74.40;;;;;;4988548;28;20044;-61
2022/08/17 07:21:20;;;;;;;29.63;5.65;;;24.40;74.00;;;;;;4990157;28;21288;-60
2022/08/17 07:23:59;;;;;;;48.10;8.27;;;24.40;74.90;;;;;;4978218;28;20444;-61
2022/08/17 07:26:26;;;;;;;28.50;6.28;;;24.40;74.50;;;;;;4981867;28;20084;-61
2022/08/17 07:28:51;;;;;;;40.80;6.28;;;24.40;74.90;;;;;;4981770;28;20363;-60
2022/08/17 07:31:17;;;;;;;30.95;6.15;;;24.50;74.70;;;;;;4974076;28;20038;-62
2022/08/17 07:34:05;;;;;;;29.00;6.45;;;24.50;74.80;;;;;;4980757;28;20033;-61
2022/08/17 07:36:32;;;;;;;33.17;7.13;;;24.50;74.60;;;;;;4980143;28;20051;-64
2022/08/17 07:38:58;;;;;;;21.30;5.70;;;24.50;74.50;;;;;;4984569;28;20499;-62
2022/08/17 07:41:23;;;;;;;34.05;6.22;;;24.50;74.90;;;;;;5000737;28;21005;-62
2022/08/17 07:43:51;;;;;;;19.35;5.43;;;24.50;75.20;;;;;;4985632;28;20116;-62
2022/08/17 07:49:08;;;;;;;32.45;7.47;;;24.50;74.90;;;;;;5009394;28;20817;-61
2022/08/17 07:51:38;;;;;;;44.40;8.02;;;24.50;74.70;;;;;;4985970;28;20041;-61
2022/08/17 07:54:22;;;;;;;48.67;7.78;;;24.60;74.70;;;;;;5019659;28;20022;-62
2022/08/17 07:56:52;;;;;;;47.65;9.05;;;24.60;74.50;;;;;;4983361;28;20549;-61
2022/08/17 07:59:24;;;;;;;58.78;8.82;;;24.60;74.40;;;;;;4989908;28;20068;-60
2022/08/17 08:01:53;;;;;;;45.30;7.60;;;24.70;74.30;;;;;;4982407;28;20077;-62
2022/08/17 08:04:28;;;;;;;44.05;7.15;;;24.60;74.10;;;;;;4985495;28;20041;-61
2022/08/17 08:06:55;;;;;;;45.80;7.80;;;24.70;73.90;;;;;;4983418;28;20611;-61
2022/08/17 08:10:02;;;;;;;52.83;7.45;;;24.70;73.80;;;;;;5002804;28;20038;-61
2022/08/17 08:12:44;;;;;;;34.50;8.52;;;24.70;73.70;;;;;;5005487;28;20049;-61
2022/08/17 08:15:19;;;;;;;97.95;12.30;;;24.80;73.60;;;;;;4966257;28;20482;-61
2022/08/17 08:18:18;;;;;;;55.53;9.82;;;24.80;73.80;;;;;;4955367;28;20107;-61
2022/08/17 08:20:52;;;;;;;51.65;8.85;;;24.80;73.70;;;;;;4986790;28;20100;-61
2022/08/17 08:23:30;;;;;;;66.72;9.45;;;24.80;73.70;;;;;;4991488;28;20026;-61
2022/08/17 08:26:27;;;;;;;51.47;9.00;;;24.80;74.20;;;;;;4991485;28;20053;-61
2022/08/17 08:29:00;;;;;;;72.55;12.02;;;24.80;73.30;;;;;;4985711;28;20033;-61
2022/08/17 08:31:45;;;;;;;80.97;11.52;;;24.90;73.70;;;;;;4984691;28;20042;-61
2022/08/17 08:34:33;;;;;;;65.72;11.68;;;24.90;73.50;;;;;;4988173;28;20084;-61
2022/08/17 08:37:33;;;;;;;71.07;10.95;;;24.90;73.50;;;;;;4979534;28;20061;-61
2022/08/17 08:40:11;;;;;;;80.07;12.88;;;25.00;73.40;;;;;;4983037;28;20064;-61
2022/08/17 08:43:18;;;;;;;81.90;11.75;;;25.00;73.40;;;;;;4984600;28;20042;-61
2022/08/17 08:46:18;;;;;;;76.55;11.27;;;25.00;73.40;;;;;;4978857;28;20050;-61
2022/08/17 08:49:02;;;;;;;83.63;12.10;;;25.00;72.90;;;;;;4980679;28;20116;-61
2022/08/17 08:51:58;;;;;;;81.80;11.25;;;25.00;72.20;;;;;;4984737;28;20335;-61
2022/08/17 08:54:36;;;;;;;103.17;12.47;;;25.00;72.10;;;;;;4982997;28;20049;-61
2022/08/17 08:57:20;;;;;;;74.13;10.75;;;25.10;72.10;;;;;;4986709;28;20037;-61
2022/08/17 09:00:09;;;;;;;78.00;11.85;;;25.10;72.00;;;;;;4961395;28;21559;-61
2022/08/17 09:02:46;;;;;;;67.90;11.55;;;25.10;71.90;;;;;;4987447;28;20510;-61
2022/08/17 09:05:26;;;;;;;79.60;11.07;;;25.20;71.90;;;;;;4980747;28;20191;-61
2022/08/17 09:07:58;;;;;;;67.95;10.48;;;25.20;71.70;;;;;;4984985;28;20514;-61
2022/08/17 09:10:29;;;;;;;65.50;10.35;;;25.20;71.60;;;;;;4979406;28;20555;-62
2022/08/17 09:13:33;;;;;;;52.38;10.00;;;25.20;71.30;;;;;;4964528;28;20029;-62
2022/08/17 09:16:05;;;;;;;53.55;9.10;;;25.30;71.20;;;;;;4986377;28;20721;-61
2022/08/17 09:18:32;;;;;;;66.95;10.70;;;25.30;71.00;;;;;;4965583;28;20045;-62
2022/08/17 09:21:00;;;;;;;64.35;10.68;;;25.30;71.10;;;;;;4967825;28;20046;-61
2022/08/17 09:23:41;;;;;;;45.22;9.38;;;25.30;70.80;;;;;;4971316;28;21341;-61
2022/08/17 09:26:16;;;;;;;47.83;9.45;;;25.30;70.60;;;;;;4983563;28;20018;-61
2022/08/17 09:28:43;;;;;;;;;;;25.40;70.80;;;;;;4998018;28;20022;-61
2022/08/17 09:31:13;;;;;;;52.70;8.93;;;25.40;70.50;;;;;;4997057;28;20413;-62
2022/08/17 09:33:43;;;;;;;52.63;9.95;;;25.40;70.30;;;;;;4983464;28;20037;-61
2022/08/17 09:36:24;;;;;;;51.72;9.15;;;25.40;70.30;;;;;;4985659;28;20037;-62
2022/08/17 09:39:02;;;;;;;46.50;8.77;;;25.40;69.80;;;;;;4971013;28;20235;-61
2022/08/17 09:41:27;;;;;;;45.80;9.30;;;25.40;69.60;;;;;;4981977;28;20133;-61
2022/08/17 09:44:09;;;;;;;76.45;10.75;;;25.50;69.60;;;;;;4985171;28;20035;-61
2022/08/17 09:46:40;;;;;;;66.97;10.50;;;25.60;69.50;;;;;;5000102;28;20188;-61
2022/08/17 09:49:08;;;;;;;59.08;9.52;;;25.60;69.50;;;;;;4963102;28;20014;-61
2022/08/17 09:51:48;;;;;;;57.40;8.90;;;25.60;69.40;;;;;;4977215;28;20129;-61
2022/08/17 09:54:29;;;;;;;55.97;8.20;;;25.60;68.80;;;;;;4997012;28;20029;-62
2022/08/17 09:57:07;;;;;;;43.63;7.72;;;25.60;68.80;;;;;;4967653;28;20520;-62
2022/08/17 09:59:55;;;;;;;44.85;7.65;;;25.70;68.60;;;;;;4985270;28;20042;-62
2022/08/17 10:02:33;;;;;;;41.70;7.80;;;25.60;68.50;;;;;;4986354;28;20038;-62
2022/08/17 10:05:01;;;;;;;50.83;9.10;;;25.60;68.20;;;;;;4989041;28;20089;-61
2022/08/17 10:07:48;;;;;;;42.90;8.32;;;25.70;68.10;;;;;;4997896;28;20033;-62
2022/08/17 10:10:19;;;;;;;41.28;7.43;;;25.70;68.10;;;;;;4993079;28;20026;-63
2022/08/17 10:12:48;;;;;;;33.65;7.30;;;25.70;67.20;;;;;;4988926;28;20065;-62
2022/08/17 10:15:17;;;;;;;48.58;8.20;;;25.80;67.50;;;;;;4983519;28;20183;-62
2022/08/17 10:18:02;;;;;;;47.63;7.43;;;25.80;66.80;;;;;;4982955;28;20159;-63
2022/08/17 10:20:36;;;;;;;29.95;7.03;;;25.80;66.50;;;;;;4991804;28;20034;-65
2022/08/17 10:26:27;;;;;;;28.45;7.90;;;25.70;66.20;;;;;;4974151;28;20041;-62
2022/08/17 10:28:54;;;;;;;34.13;6.55;;;26.10;66.30;;;;;;4987988;28;20072;-61
2022/08/17 10:31:29;;;;;;;34.55;6.43;;;26.00;65.70;;;;;;5029456;28;20465;-61
2022/08/17 10:34:27;;;;;;;23.55;5.57;;;26.00;65.30;;;;;;4992968;28;20034;-62
2022/08/17 10:37:21;;;;;;;52.85;7.93;;;26.10;64.90;;;;;;4987833;28;20136;-62
2022/08/17 10:40:09;;;;;;;29.92;5.88;;;26.10;64.80;;;;;;4992934;28;20065;-61
2022/08/17 10:43:02;;;;;;;22.05;5.65;;;26.20;64.70;;;;;;4994255;28;20574;-61
2022/08/17 10:45:35;;;;;;;33.15;5.95;;;26.20;64.60;;;;;;4977858;28;20073;-62
2022/08/17 10:48:25;;;;;;;20.65;5.28;;;26.30;64.50;;;;;;4990998;28;20520;-61
2022/08/17 10:51:35;;;;;;;44.65;6.55;;;26.40;64.10;;;;;;4988741;28;20097;-62
2022/08/17 10:54:01;;;;;;;59.13;7.65;;;26.40;64.30;;;;;;4975016;28;20045;-61
2022/08/17 10:56:59;;;;;;;44.55;7.78;;;26.50;64.10;;;;;;4993894;28;20375;-62
2022/08/17 10:59:33;;;;;;;42.40;8.68;;;26.60;64.00;;;;;;4955382;28;20038;-62
2022/08/17 11:02:14;;;;;;;64.45;9.32;;;26.60;63.70;;;;;;4997274;28;20038;-62
2022/08/17 11:05:17;;;;;;;63.60;8.98;;;26.70;63.80;;;;;;5022066;28;20143;-62
2022/08/17 11:08:12;;;;;;;71.57;9.73;;;26.70;63.60;;;;;;4994196;28;20032;-62
2022/08/17 11:10:43;;;;;;;61.45;8.75;;;26.80;62.90;;;;;;4998887;28;20030;-62
2022/08/17 11:13:34;;;;;;;49.92;8.70;;;26.90;63.00;;;;;;4999224;28;20064;-61
2022/08/17 11:16:18;;;;;;;75.70;9.25;;;27.00;63.00;;;;;;5000373;28;20034;-61
2022/08/17 11:19:08;;;;;;;46.20;8.55;;;27.00;62.90;;;;;;5001745;28;20037;-62
2022/08/17 11:21:44;;;;;;;52.55;8.23;;;27.10;62.30;;;;;;4999673;28;20109;-62
2022/08/17 11:24:15;;;;;;;52.47;8.23;;;27.20;62.00;;;;;;4994170;28;20473;-63
2022/08/17 11:26:45;;;;;;;66.03;9.70;;;27.20;62.00;;;;;;5007212;28;20034;-60
2022/08/17 11:29:22;;;;;;;65.43;8.88;;;27.30;62.20;;;;;;4991426;28;20018;-61
2022/08/17 11:32:01;;;;;;;54.08;7.93;;;27.40;62.00;;;;;;4996661;28;20113;-61
2022/08/17 11:34:27;;;;;;;44.88;7.43;;;27.40;61.50;;;;;;4995452;28;20549;-62
2022/08/17 11:37:09;;;;;;;40.05;7.40;;;27.50;60.70;;;;;;4995066;28;20030;-63
2022/08/17 11:39:48;;;;;;;45.45;6.47;;;27.50;60.60;;;;;;4979840;28;20527;-60
2022/08/17 11:42:26;;;;;;;48.08;6.55;;;27.60;60.30;;;;;;4980519;28;20128;-60
2022/08/17 11:45:15;;;;;;;46.67;7.28;;;27.60;60.00;;;;;;4999944;28;20036;-61
2022/08/17 11:53:42;;;;;;;44.15;6.78;;;27.80;59.80;;;;;;4995274;28;21239;-62
2022/08/17 11:56:30;;;;;;;35.60;7.75;;;27.80;59.80;;;;;;4995338;28;20030;-62
2022/08/17 11:58:57;;;;;;;55.17;7.22;;;27.90;59.90;;;;;;4996301;28;20149;-62
2022/08/17 12:01:23;;;;;;;48.75;6.80;;;28.00;59.60;;;;;;4989978;28;20113;-62
2022/08/17 12:04:14;;;;;;;53.33;7.88;;;28.00;59.50;;;;;;4985043;28;20408;-62
2022/08/17 12:06:45;;;;;;;44.88;7.57;;;28.10;59.60;;;;;;4992774;28;20113;-62
2022/08/17 12:09:15;;;;;;;69.47;8.68;;;28.20;59.40;;;;;;4990509;28;20111;-62
2022/08/17 12:11:46;;;;;;;49.15;8.32;;;28.30;59.60;;;;;;4990261;28;20091;-62
2022/08/17 12:14:14;;;;;;;66.85;8.88;;;28.40;59.20;;;;;;4997935;28;20378;-62
2022/08/17 12:16:42;;;;;;;53.35;8.13;;;28.40;59.10;;;;;;4980655;28;20323;-62
2022/08/17 12:19:15;;;;;;;52.42;9.35;;;28.50;58.90;;;;;;4977137;28;20117;-62
2022/08/17 12:21:47;;;;;;;39.38;7.43;;;28.60;58.90;;;;;;4972306;28;20033;-62
2022/08/17 12:24:47;;;;;;;46.85;8.88;;;28.60;58.50;;;;;;4987145;28;20121;-62
2022/08/17 12:27:19;;;;;;;46.38;8.60;;;28.70;58.60;;;;;;5006876;28;20065;-62
2022/08/17 12:29:44;;;;;;;63.35;8.43;;;28.80;58.10;;;;;;4989309;28;20044;-62
2022/08/17 12:32:18;;;;;;;48.72;8.43;;;28.80;57.90;;;;;;4991721;28;20041;-62
2022/08/17 12:34:45;;;;;;;48.15;8.57;;;28.90;58.00;;;;;;4990224;28;20108;-61
2022/08/17 12:37:25;;;;;;;42.60;7.68;;;28.90;58.00;;;;;;4993522;28;20065;-62
2022/08/17 12:39:55;;;;;;;53.45;6.95;;;29.00;58.00;;;;;;4994811;28;20022;-62
2022/08/17 12:42:23;;;;;;;69.82;9.25;;;29.00;57.50;;;;;;4986764;28;20139;-62
2022/08/17 12:44:49;;;;;;;75.68;9.90;;;29.10;57.80;;;;;;5027155;28;20549;-62
2022/08/17 12:47:18;;;;;;;43.40;9.18;;;29.10;57.60;;;;;;4996866;28;20049;-62
2022/08/17 12:49:47;;;;;;;69.70;9.52;;;29.20;57.80;;;;;;4994035;28;20088;-62
2022/08/17 12:52:16;;;;;;;71.88;9.18;;;29.20;57.70;;;;;;4992948;28;20549;-62
2022/08/17 12:54:49;;;;;;;58.90;9.18;;;29.20;57.60;;;;;;4993910;28;20087;-62
2022/08/17 12:57:28;;;;;;;74.30;10.18;;;29.20;57.50;;;;;;4991436;28;20040;-62
2022/08/17 12:59:59;;;;;;;70.90;10.13;;;29.30;57.60;;;;;;4982626;28;20048;-62
2022/08/17 13:02:41;;;;;;;80.75;9.60;;;29.40;57.60;;;;;;4992359;28;20025;-62
2022/08/17 13:05:16;;;;;;;61.30;9.00;;;29.40;57.50;;;;;;4984232;28;20517;-62
2022/08/17 13:07:42;;;;;;;72.75;9.05;;;29.50;57.40;;;;;;5008859;28;20029;-62
2022/08/17 13:10:14;;;;;;;46.97;7.65;;;29.50;57.20;;;;;;4978545;28;21979;-62
2022/08/17 13:12:40;;;;;;;77.90;10.00;;;29.60;57.10;;;;;;4987140;28;20215;-62
2022/08/17 13:15:06;;;;;;;68.18;10.30;;;29.60;57.30;;;;;;4977524;28;20080;-62
2022/08/17 13:17:33;;;;;;;61.85;9.65;;;29.60;57.30;;;;;;4990738;28;20054;-62
2022/08/17 13:19:59;;;;;;;60.05;9.95;;;29.70;56.90;;;;;;4995186;28;20038;-62
2022/08/17 13:22:25;;;;;;;84.80;8.95;;;29.70;57.00;;;;;;4990160;28;20386;-62
2022/08/17 13:25:14;;;;;;;70.70;10.02;;;29.80;56.50;;;;;;5003966;28;20030;-62
2022/08/17 13:27:40;;;;;;;60.88;9.55;;;29.80;56.80;;;;;;5007872;28;20125;-62
2022/08/17 13:30:10;;;;;;;65.20;9.50;;;29.80;56.70;;;;;;4992857;28;20369;-66
2022/08/17 13:32:41;;;;;;;75.82;9.80;;;29.90;56.80;;;;;;4994133;28;20112;-62
2022/08/17 13:35:38;;;;;;;51.60;8.40;;;29.90;56.60;;;;;;4990928;28;20635;-63